sensor_id;sensor_type;location;lat;lon;timestamp;P1;durP1;ratioP1;P2;durP2;ratioP2
17382;SDS011;8809;51.892;8.384;2022-11-28T00:00:48;6.95;;;5.15;;
17382;SDS011;8809;51.892;8.384;2022-11-28T00:03:17;5.90;;;4.40;;
17382;SDS011;8809;51.892;8.384;2022-11-28T00:05:43;8.13;;;5.75;;
17382;SDS011;8809;51.892;8.384;2022-11-28T00:08:10;5.90;;;4.32;;
17382;SDS011;8809;51.892;8.384;2022-11-28T00:10:37;4.97;;;4.03;;
17382;SDS011;8809;51.892;8.384;2022-11-28T00:13:05;4.72;;;4.20;;
17382;SDS011;8809;51.892;8.384;2022-11-28T00:15:32;5.45;;;3.80;;
17382;SDS011;8809;51.892;8.384;2022-11-28T00:18:00;4.80;;;3.65;;
17382;SDS011;8809;51.892;8.384;2022-11-28T00:20:28;5.80;;;4.63;;
17382;SDS011;8809;51.892;8.384;2022-11-28T00:22:56;5.88;;;4.78;;
17382;SDS011;8809;51.892;8.384;2022-11-28T00:25:22;5.00;;;4.43;;
17382;SDS011;8809;51.892;8.384;2022-11-28T00:27:49;7.72;;;5.20;;
17382;SDS011;8809;51.892;8.384;2022-11-28T00:30:16;6.15;;;5.10;;
17382;SDS011;8809;51.892;8.384;2022-11-28T00:32:43;5.13;;;4.22;;
17382;SDS011;8809;51.892;8.384;2022-11-28T00:35:11;5.75;;;4.13;;
17382;SDS011;8809;51.892;8.384;2022-11-28T00:37:38;5.18;;;3.80;;
17382;SDS011;8809;51.892;8.384;2022-11-28T00:40:06;5.35;;;3.72;;
17382;SDS011;8809;51.892;8.384;2022-11-28T00:42:33;5.45;;;4.43;;
17382;SDS011;8809;51.892;8.384;2022-11-28T00:45:00;4.75;;;3.72;;
17382;SDS011;8809;51.892;8.384;2022-11-28T00:47:27;7.35;;;4.80;;
17382;SDS011;8809;51.892;8.384;2022-11-28T00:49:54;4.53;;;3.90;;
17382;SDS011;8809;51.892;8.384;2022-11-28T00:52:22;4.53;;;3.58;;
17382;SDS011;8809;51.892;8.384;2022-11-28T00:54:49;4.28;;;3.65;;
17382;SDS011;8809;51.892;8.384;2022-11-28T00:57:16;6.30;;;4.28;;
17382;SDS011;8809;51.892;8.384;2022-11-28T00:59:42;4.13;;;3.67;;
17382;SDS011;8809;51.892;8.384;2022-11-28T01:02:09;4.93;;;3.83;;
17382;SDS011;8809;51.892;8.384;2022-11-28T01:04:36;5.13;;;3.90;;
17382;SDS011;8809;51.892;8.384;2022-11-28T01:07:03;5.00;;;3.88;;
17382;SDS011;8809;51.892;8.384;2022-11-28T01:09:31;5.78;;;4.20;;
17382;SDS011;8809;51.892;8.384;2022-11-28T01:11:58;6.50;;;4.25;;
17382;SDS011;8809;51.892;8.384;2022-11-28T01:14:25;5.60;;;4.28;;
17382;SDS011;8809;51.892;8.384;2022-11-28T01:16:52;4.28;;;3.55;;
17382;SDS011;8809;51.892;8.384;2022-11-28T01:19:19;5.50;;;3.97;;
17382;SDS011;8809;51.892;8.384;2022-11-28T01:21:46;5.53;;;3.88;;
17382;SDS011;8809;51.892;8.384;2022-11-28T01:24:13;4.32;;;3.33;;
17382;SDS011;8809;51.892;8.384;2022-11-28T01:26:43;4.93;;;4.00;;
17382;SDS011;8809;51.892;8.384;2022-11-28T01:29:10;5.00;;;4.50;;
17382;SDS011;8809;51.892;8.384;2022-11-28T01:31:37;6.55;;;4.28;;
17382;SDS011;8809;51.892;8.384;2022-11-28T01:34:04;6.63;;;5.30;;
17382;SDS011;8809;51.892;8.384;2022-11-28T01:36:31;5.88;;;4.65;;
17382;SDS011;8809;51.892;8.384;2022-11-28T01:38:57;6.00;;;4.10;;
17382;SDS011;8809;51.892;8.384;2022-11-28T01:41:25;6.38;;;4.93;;
17382;SDS011;8809;51.892;8.384;2022-11-28T01:44:06;4.95;;;4.15;;
17382;SDS011;8809;51.892;8.384;2022-11-28T01:46:53;4.85;;;4.20;;
17382;SDS011;8809;51.892;8.384;2022-11-28T01:49:21;4.88;;;4.07;;
17382;SDS011;8809;51.892;8.384;2022-11-28T01:51:54;4.80;;;4.05;;
17382;SDS011;8809;51.892;8.384;2022-11-28T01:54:24;6.88;;;4.97;;
17382;SDS011;8809;51.892;8.384;2022-11-28T01:56:53;4.82;;;4.22;;
17382;SDS011;8809;51.892;8.384;2022-11-28T01:59:26;5.25;;;4.22;;
17382;SDS011;8809;51.892;8.384;2022-11-28T02:01:56;6.05;;;4.60;;
17382;SDS011;8809;51.892;8.384;2022-11-28T02:04:24;6.10;;;3.83;;
17382;SDS011;8809;51.892;8.384;2022-11-28T02:06:53;4.72;;;4.03;;
17382;SDS011;8809;51.892;8.384;2022-11-28T02:09:20;5.40;;;4.10;;
17382;SDS011;8809;51.892;8.384;2022-11-28T02:11:58;6.20;;;4.28;;
17382;SDS011;8809;51.892;8.384;2022-11-28T02:17:41;7.18;;;4.95;;
17382;SDS011;8809;51.892;8.384;2022-11-28T02:23:22;6.20;;;4.40;;
17382;SDS011;8809;51.892;8.384;2022-11-28T02:26:03;6.15;;;5.18;;
17382;SDS011;8809;51.892;8.384;2022-11-28T02:28:55;6.32;;;4.78;;
17382;SDS011;8809;51.892;8.384;2022-11-28T02:31:58;6.18;;;4.47;;
17382;SDS011;8809;51.892;8.384;2022-11-28T02:34:39;5.03;;;3.85;;
17382;SDS011;8809;51.892;8.384;2022-11-28T02:37:13;5.55;;;4.30;;
17382;SDS011;8809;51.892;8.384;2022-11-28T02:39:48;6.30;;;4.78;;
17382;SDS011;8809;51.892;8.384;2022-11-28T02:42:27;6.68;;;5.25;;
17382;SDS011;8809;51.892;8.384;2022-11-28T02:45:04;6.10;;;5.10;;
17382;SDS011;8809;51.892;8.384;2022-11-28T02:47:37;5.93;;;4.25;;
17382;SDS011;8809;51.892;8.384;2022-11-28T02:50:14;5.45;;;4.20;;
17382;SDS011;8809;51.892;8.384;2022-11-28T02:52:48;6.13;;;4.72;;
17382;SDS011;8809;51.892;8.384;2022-11-28T02:55:17;6.68;;;4.65;;
17382;SDS011;8809;51.892;8.384;2022-11-28T02:57:46;7.43;;;5.43;;
17382;SDS011;8809;51.892;8.384;2022-11-28T03:00:26;9.27;;;5.70;;
17382;SDS011;8809;51.892;8.384;2022-11-28T03:03:03;6.25;;;4.72;;
17382;SDS011;8809;51.892;8.384;2022-11-28T03:05:53;7.88;;;5.38;;
17382;SDS011;8809;51.892;8.384;2022-11-28T03:08:29;6.43;;;4.85;;
17382;SDS011;8809;51.892;8.384;2022-11-28T03:11:04;6.72;;;5.20;;
17382;SDS011;8809;51.892;8.384;2022-11-28T03:13:37;5.85;;;5.13;;
17382;SDS011;8809;51.892;8.384;2022-11-28T03:16:11;6.43;;;4.82;;
17382;SDS011;8809;51.892;8.384;2022-11-28T03:18:50;6.78;;;5.15;;
17382;SDS011;8809;51.892;8.384;2022-11-28T03:21:29;6.63;;;4.82;;
17382;SDS011;8809;51.892;8.384;2022-11-28T03:24:02;7.00;;;4.63;;
17382;SDS011;8809;51.892;8.384;2022-11-28T03:26:36;6.93;;;5.28;;
17382;SDS011;8809;51.892;8.384;2022-11-28T03:29:11;7.78;;;5.85;;
17382;SDS011;8809;51.892;8.384;2022-11-28T03:31:44;7.32;;;5.10;;
17382;SDS011;8809;51.892;8.384;2022-11-28T03:34:16;5.45;;;4.75;;
17382;SDS011;8809;51.892;8.384;2022-11-28T03:36:48;6.30;;;5.30;;
17382;SDS011;8809;51.892;8.384;2022-11-28T03:39:19;8.32;;;5.72;;
17382;SDS011;8809;51.892;8.384;2022-11-28T03:41:51;8.35;;;5.50;;
17382;SDS011;8809;51.892;8.384;2022-11-28T03:44:22;8.40;;;6.40;;
17382;SDS011;8809;51.892;8.384;2022-11-28T03:46:53;8.63;;;5.65;;
17382;SDS011;8809;51.892;8.384;2022-11-28T03:49:25;6.43;;;4.82;;
17382;SDS011;8809;51.892;8.384;2022-11-28T03:51:56;7.45;;;5.90;;
17382;SDS011;8809;51.892;8.384;2022-11-28T03:54:27;7.20;;;5.88;;
17382;SDS011;8809;51.892;8.384;2022-11-28T03:57:00;8.45;;;6.50;;
17382;SDS011;8809;51.892;8.384;2022-11-28T03:59:35;7.57;;;5.88;;
17382;SDS011;8809;51.892;8.384;2022-11-28T04:02:08;6.45;;;5.35;;
17382;SDS011;8809;51.892;8.384;2022-11-28T04:04:45;7.00;;;5.60;;
17382;SDS011;8809;51.892;8.384;2022-11-28T04:07:20;7.50;;;5.45;;
17382;SDS011;8809;51.892;8.384;2022-11-28T04:09:54;8.25;;;5.95;;
17382;SDS011;8809;51.892;8.384;2022-11-28T04:12:28;6.85;;;4.78;;
17382;SDS011;8809;51.892;8.384;2022-11-28T04:15:03;6.97;;;5.20;;
17382;SDS011;8809;51.892;8.384;2022-11-28T04:17:36;8.45;;;6.30;;
17382;SDS011;8809;51.892;8.384;2022-11-28T04:20:12;7.80;;;6.10;;
17382;SDS011;8809;51.892;8.384;2022-11-28T04:22:45;8.38;;;5.90;;
17382;SDS011;8809;51.892;8.384;2022-11-28T04:25:16;8.90;;;6.00;;
17382;SDS011;8809;51.892;8.384;2022-11-28T04:27:48;8.15;;;6.35;;
17382;SDS011;8809;51.892;8.384;2022-11-28T04:30:19;9.10;;;6.60;;
17382;SDS011;8809;51.892;8.384;2022-11-28T04:32:47;9.43;;;7.20;;
17382;SDS011;8809;51.892;8.384;2022-11-28T04:35:19;8.13;;;6.20;;
17382;SDS011;8809;51.892;8.384;2022-11-28T04:37:51;10.52;;;7.53;;
17382;SDS011;8809;51.892;8.384;2022-11-28T04:40:20;9.82;;;7.13;;
17382;SDS011;8809;51.892;8.384;2022-11-28T04:42:50;8.23;;;6.55;;
17382;SDS011;8809;51.892;8.384;2022-11-28T04:45:23;7.68;;;6.28;;
17382;SDS011;8809;51.892;8.384;2022-11-28T04:47:56;8.82;;;6.43;;
17382;SDS011;8809;51.892;8.384;2022-11-28T04:50:27;9.40;;;6.68;;
17382;SDS011;8809;51.892;8.384;2022-11-28T04:52:59;9.90;;;6.57;;
17382;SDS011;8809;51.892;8.384;2022-11-28T04:55:37;8.25;;;6.20;;
17382;SDS011;8809;51.892;8.384;2022-11-28T04:58:08;13.23;;;8.20;;
17382;SDS011;8809;51.892;8.384;2022-11-28T05:00:39;10.80;;;7.10;;
17382;SDS011;8809;51.892;8.384;2022-11-28T05:03:09;9.45;;;7.07;;
17382;SDS011;8809;51.892;8.384;2022-11-28T05:05:44;10.73;;;7.38;;
17382;SDS011;8809;51.892;8.384;2022-11-28T05:08:14;9.15;;;6.50;;
17382;SDS011;8809;51.892;8.384;2022-11-28T05:10:42;9.80;;;6.88;;
17382;SDS011;8809;51.892;8.384;2022-11-28T05:13:10;9.30;;;6.88;;
17382;SDS011;8809;51.892;8.384;2022-11-28T05:15:36;11.00;;;7.32;;
17382;SDS011;8809;51.892;8.384;2022-11-28T05:18:04;9.32;;;7.00;;
17382;SDS011;8809;51.892;8.384;2022-11-28T05:20:31;7.78;;;6.03;;
17382;SDS011;8809;51.892;8.384;2022-11-28T05:23:00;7.82;;;6.40;;
17382;SDS011;8809;51.892;8.384;2022-11-28T05:25:26;6.78;;;5.43;;
17382;SDS011;8809;51.892;8.384;2022-11-28T05:28:01;7.38;;;5.28;;
17382;SDS011;8809;51.892;8.384;2022-11-28T05:30:28;7.88;;;5.95;;
17382;SDS011;8809;51.892;8.384;2022-11-28T05:32:56;7.95;;;5.63;;
17382;SDS011;8809;51.892;8.384;2022-11-28T05:35:24;6.75;;;5.07;;
17382;SDS011;8809;51.892;8.384;2022-11-28T05:37:51;6.97;;;5.07;;
17382;SDS011;8809;51.892;8.384;2022-11-28T05:40:19;6.30;;;4.40;;
17382;SDS011;8809;51.892;8.384;2022-11-28T05:42:46;8.48;;;5.18;;
17382;SDS011;8809;51.892;8.384;2022-11-28T05:45:13;5.88;;;4.75;;
17382;SDS011;8809;51.892;8.384;2022-11-28T05:47:40;6.30;;;4.55;;
17382;SDS011;8809;51.892;8.384;2022-11-28T05:50:07;5.18;;;4.10;;
17382;SDS011;8809;51.892;8.384;2022-11-28T05:52:34;5.18;;;4.18;;
17382;SDS011;8809;51.892;8.384;2022-11-28T05:55:01;6.18;;;4.60;;
17382;SDS011;8809;51.892;8.384;2022-11-28T05:57:29;7.18;;;5.22;;
17382;SDS011;8809;51.892;8.384;2022-11-28T05:59:57;6.97;;;5.55;;
17382;SDS011;8809;51.892;8.384;2022-11-28T06:02:24;5.95;;;4.68;;
17382;SDS011;8809;51.892;8.384;2022-11-28T06:04:51;7.88;;;5.85;;
17382;SDS011;8809;51.892;8.384;2022-11-28T06:07:18;6.93;;;4.97;;
17382;SDS011;8809;51.892;8.384;2022-11-28T06:09:45;6.82;;;5.13;;
17382;SDS011;8809;51.892;8.384;2022-11-28T06:12:12;6.03;;;5.00;;
17382;SDS011;8809;51.892;8.384;2022-11-28T06:14:40;6.45;;;4.90;;
17382;SDS011;8809;51.892;8.384;2022-11-28T06:17:07;8.43;;;6.25;;
17382;SDS011;8809;51.892;8.384;2022-11-28T06:19:34;7.55;;;5.90;;
17382;SDS011;8809;51.892;8.384;2022-11-28T06:22:01;8.10;;;6.32;;
17382;SDS011;8809;51.892;8.384;2022-11-28T06:24:28;7.22;;;5.57;;
17382;SDS011;8809;51.892;8.384;2022-11-28T06:26:54;7.95;;;5.53;;
17382;SDS011;8809;51.892;8.384;2022-11-28T06:29:21;9.40;;;6.05;;
17382;SDS011;8809;51.892;8.384;2022-11-28T06:31:50;8.25;;;6.07;;
17382;SDS011;8809;51.892;8.384;2022-11-28T06:34:17;8.20;;;6.20;;
17382;SDS011;8809;51.892;8.384;2022-11-28T06:36:43;9.20;;;5.90;;
17382;SDS011;8809;51.892;8.384;2022-11-28T06:39:11;7.50;;;5.65;;
17382;SDS011;8809;51.892;8.384;2022-11-28T06:41:39;9.70;;;6.55;;
17382;SDS011;8809;51.892;8.384;2022-11-28T06:44:06;6.90;;;5.57;;
17382;SDS011;8809;51.892;8.384;2022-11-28T06:46:37;7.47;;;6.00;;
17382;SDS011;8809;51.892;8.384;2022-11-28T06:49:05;8.25;;;5.50;;
17382;SDS011;8809;51.892;8.384;2022-11-28T06:51:32;7.60;;;5.22;;
17382;SDS011;8809;51.892;8.384;2022-11-28T06:53:59;7.00;;;5.18;;
17382;SDS011;8809;51.892;8.384;2022-11-28T06:56:26;8.23;;;6.13;;
17382;SDS011;8809;51.892;8.384;2022-11-28T06:58:53;6.60;;;5.47;;
17382;SDS011;8809;51.892;8.384;2022-11-28T07:01:22;6.45;;;5.38;;
17382;SDS011;8809;51.892;8.384;2022-11-28T07:03:50;7.25;;;5.45;;
17382;SDS011;8809;51.892;8.384;2022-11-28T07:06:21;8.25;;;5.22;;
17382;SDS011;8809;51.892;8.384;2022-11-28T07:08:49;7.20;;;5.40;;
17382;SDS011;8809;51.892;8.384;2022-11-28T07:11:17;7.53;;;5.07;;
17382;SDS011;8809;51.892;8.384;2022-11-28T07:13:45;7.25;;;5.50;;
17382;SDS011;8809;51.892;8.384;2022-11-28T07:16:14;10.00;;;6.55;;
17382;SDS011;8809;51.892;8.384;2022-11-28T07:18:42;7.93;;;5.90;;
17382;SDS011;8809;51.892;8.384;2022-11-28T07:21:09;8.45;;;6.35;;
17382;SDS011;8809;51.892;8.384;2022-11-28T07:23:40;7.93;;;5.30;;
17382;SDS011;8809;51.892;8.384;2022-11-28T07:26:08;6.68;;;5.40;;
17382;SDS011;8809;51.892;8.384;2022-11-28T07:28:37;5.88;;;4.68;;
17382;SDS011;8809;51.892;8.384;2022-11-28T07:31:05;7.22;;;5.35;;
17382;SDS011;8809;51.892;8.384;2022-11-28T07:33:35;5.45;;;4.47;;
17382;SDS011;8809;51.892;8.384;2022-11-28T07:36:03;5.68;;;4.30;;
17382;SDS011;8809;51.892;8.384;2022-11-28T07:38:32;6.60;;;4.43;;
17382;SDS011;8809;51.892;8.384;2022-11-28T07:41:04;5.70;;;4.40;;
17382;SDS011;8809;51.892;8.384;2022-11-28T07:43:33;5.68;;;4.80;;
17382;SDS011;8809;51.892;8.384;2022-11-28T07:46:02;6.15;;;4.32;;
17382;SDS011;8809;51.892;8.384;2022-11-28T07:48:30;6.90;;;5.20;;
17382;SDS011;8809;51.892;8.384;2022-11-28T07:50:57;5.70;;;4.75;;
17382;SDS011;8809;51.892;8.384;2022-11-28T07:53:24;6.70;;;4.78;;
17382;SDS011;8809;51.892;8.384;2022-11-28T07:55:51;6.68;;;5.20;;
17382;SDS011;8809;51.892;8.384;2022-11-28T07:58:20;6.47;;;4.65;;
17382;SDS011;8809;51.892;8.384;2022-11-28T08:00:47;5.68;;;4.15;;
17382;SDS011;8809;51.892;8.384;2022-11-28T08:03:14;5.95;;;4.30;;
17382;SDS011;8809;51.892;8.384;2022-11-28T08:05:41;4.78;;;4.18;;
17382;SDS011;8809;51.892;8.384;2022-11-28T08:08:13;5.22;;;4.03;;
17382;SDS011;8809;51.892;8.384;2022-11-28T08:10:41;5.82;;;4.03;;
17382;SDS011;8809;51.892;8.384;2022-11-28T08:13:08;5.90;;;4.47;;
17382;SDS011;8809;51.892;8.384;2022-11-28T08:15:37;6.32;;;4.47;;
17382;SDS011;8809;51.892;8.384;2022-11-28T08:18:05;5.85;;;4.68;;
17382;SDS011;8809;51.892;8.384;2022-11-28T08:20:34;6.65;;;4.47;;
17382;SDS011;8809;51.892;8.384;2022-11-28T08:23:01;6.22;;;4.70;;
17382;SDS011;8809;51.892;8.384;2022-11-28T08:25:28;9.75;;;6.95;;
17382;SDS011;8809;51.892;8.384;2022-11-28T08:27:55;6.72;;;5.72;;
17382;SDS011;8809;51.892;8.384;2022-11-28T08:30:22;6.82;;;5.22;;
17382;SDS011;8809;51.892;8.384;2022-11-28T08:32:50;8.00;;;5.95;;
17382;SDS011;8809;51.892;8.384;2022-11-28T08:35:17;8.32;;;6.05;;
17382;SDS011;8809;51.892;8.384;2022-11-28T08:37:44;8.55;;;5.80;;
17382;SDS011;8809;51.892;8.384;2022-11-28T08:40:11;7.07;;;5.63;;
17382;SDS011;8809;51.892;8.384;2022-11-28T08:42:39;6.28;;;4.80;;
17382;SDS011;8809;51.892;8.384;2022-11-28T08:45:06;6.20;;;5.07;;
17382;SDS011;8809;51.892;8.384;2022-11-28T08:47:36;6.10;;;5.00;;
17382;SDS011;8809;51.892;8.384;2022-11-28T08:50:06;6.65;;;5.10;;
17382;SDS011;8809;51.892;8.384;2022-11-28T08:52:33;6.57;;;5.00;;
17382;SDS011;8809;51.892;8.384;2022-11-28T08:55:00;9.32;;;5.75;;
17382;SDS011;8809;51.892;8.384;2022-11-28T08:57:27;7.85;;;6.28;;
17382;SDS011;8809;51.892;8.384;2022-11-28T08:59:54;10.18;;;6.40;;
17382;SDS011;8809;51.892;8.384;2022-11-28T09:02:21;10.00;;;7.00;;
17382;SDS011;8809;51.892;8.384;2022-11-28T09:04:47;7.93;;;5.93;;
17382;SDS011;8809;51.892;8.384;2022-11-28T09:07:16;7.40;;;5.55;;
17382;SDS011;8809;51.892;8.384;2022-11-28T09:09:43;7.38;;;5.30;;
17382;SDS011;8809;51.892;8.384;2022-11-28T09:12:10;6.70;;;5.00;;
17382;SDS011;8809;51.892;8.384;2022-11-28T09:14:36;10.05;;;7.30;;
17382;SDS011;8809;51.892;8.384;2022-11-28T09:17:03;7.57;;;6.10;;
17382;SDS011;8809;51.892;8.384;2022-11-28T09:19:31;15.07;;;9.82;;
17382;SDS011;8809;51.892;8.384;2022-11-28T09:21:58;9.45;;;7.20;;
17382;SDS011;8809;51.892;8.384;2022-11-28T09:24:26;10.40;;;7.32;;
17382;SDS011;8809;51.892;8.384;2022-11-28T09:26:53;10.25;;;6.78;;
17382;SDS011;8809;51.892;8.384;2022-11-28T09:29:20;7.47;;;6.18;;
17382;SDS011;8809;51.892;8.384;2022-11-28T09:31:47;9.88;;;6.45;;
17382;SDS011;8809;51.892;8.384;2022-11-28T09:34:14;11.10;;;8.07;;
17382;SDS011;8809;51.892;8.384;2022-11-28T09:36:41;12.00;;;8.02;;
17382;SDS011;8809;51.892;8.384;2022-11-28T09:39:08;9.77;;;6.95;;
17382;SDS011;8809;51.892;8.384;2022-11-28T09:41:39;9.80;;;6.65;;
17382;SDS011;8809;51.892;8.384;2022-11-28T09:44:13;11.30;;;7.72;;
17382;SDS011;8809;51.892;8.384;2022-11-28T09:46:46;9.40;;;6.75;;
17382;SDS011;8809;51.892;8.384;2022-11-28T09:49:18;8.30;;;6.07;;
17382;SDS011;8809;51.892;8.384;2022-11-28T09:51:55;10.68;;;7.10;;
17382;SDS011;8809;51.892;8.384;2022-11-28T09:54:26;10.38;;;7.15;;
17382;SDS011;8809;51.892;8.384;2022-11-28T09:57:06;9.77;;;6.63;;
17382;SDS011;8809;51.892;8.384;2022-11-28T09:59:38;10.77;;;8.20;;
17382;SDS011;8809;51.892;8.384;2022-11-28T10:02:11;9.63;;;6.80;;
17382;SDS011;8809;51.892;8.384;2022-11-28T10:04:46;9.75;;;7.70;;
17382;SDS011;8809;51.892;8.384;2022-11-28T10:07:21;8.18;;;6.45;;
17382;SDS011;8809;51.892;8.384;2022-11-28T10:09:55;8.80;;;6.63;;
17382;SDS011;8809;51.892;8.384;2022-11-28T10:12:35;9.73;;;7.03;;
17382;SDS011;8809;51.892;8.384;2022-11-28T10:15:15;8.05;;;5.97;;
17382;SDS011;8809;51.892;8.384;2022-11-28T10:17:53;7.88;;;5.57;;
17382;SDS011;8809;51.892;8.384;2022-11-28T10:20:30;8.45;;;6.05;;
17382;SDS011;8809;51.892;8.384;2022-11-28T10:23:00;8.80;;;6.55;;
17382;SDS011;8809;51.892;8.384;2022-11-28T10:25:32;8.80;;;7.00;;
17382;SDS011;8809;51.892;8.384;2022-11-28T10:28:04;9.32;;;7.00;;
17382;SDS011;8809;51.892;8.384;2022-11-28T10:30:32;9.88;;;7.68;;
17382;SDS011;8809;51.892;8.384;2022-11-28T10:33:07;8.15;;;6.03;;
17382;SDS011;8809;51.892;8.384;2022-11-28T10:35:43;8.35;;;5.95;;
17382;SDS011;8809;51.892;8.384;2022-11-28T10:38:14;9.35;;;6.85;;
17382;SDS011;8809;51.892;8.384;2022-11-28T10:40:46;10.20;;;7.72;;
17382;SDS011;8809;51.892;8.384;2022-11-28T10:43:23;10.20;;;6.93;;
17382;SDS011;8809;51.892;8.384;2022-11-28T10:46:00;10.15;;;7.15;;
17382;SDS011;8809;51.892;8.384;2022-11-28T10:48:43;12.43;;;8.25;;
17382;SDS011;8809;51.892;8.384;2022-11-28T10:51:23;8.88;;;6.90;;
17382;SDS011;8809;51.892;8.384;2022-11-28T10:54:01;8.35;;;6.20;;
17382;SDS011;8809;51.892;8.384;2022-11-28T10:56:46;8.20;;;5.82;;
17382;SDS011;8809;51.892;8.384;2022-11-28T10:59:25;11.32;;;7.88;;
17382;SDS011;8809;51.892;8.384;2022-11-28T11:02:02;10.02;;;6.88;;
17382;SDS011;8809;51.892;8.384;2022-11-28T11:04:44;8.70;;;6.38;;
17382;SDS011;8809;51.892;8.384;2022-11-28T11:07:13;8.65;;;6.40;;
17382;SDS011;8809;51.892;8.384;2022-11-28T11:09:44;8.00;;;5.53;;
17382;SDS011;8809;51.892;8.384;2022-11-28T11:12:13;8.00;;;5.63;;
17382;SDS011;8809;51.892;8.384;2022-11-28T11:14:46;8.00;;;5.75;;
17382;SDS011;8809;51.892;8.384;2022-11-28T11:17:23;7.43;;;5.43;;
17382;SDS011;8809;51.892;8.384;2022-11-28T11:19:57;7.53;;;5.38;;
17382;SDS011;8809;51.892;8.384;2022-11-28T11:22:24;7.72;;;5.72;;
17382;SDS011;8809;51.892;8.384;2022-11-28T11:25:03;6.70;;;5.22;;
17382;SDS011;8809;51.892;8.384;2022-11-28T11:27:32;6.38;;;4.70;;
17382;SDS011;8809;51.892;8.384;2022-11-28T11:32:50;7.95;;;6.10;;
17382;SDS011;8809;51.892;8.384;2022-11-28T11:35:19;8.70;;;6.10;;
17382;SDS011;8809;51.892;8.384;2022-11-28T11:37:49;7.30;;;5.30;;
17382;SDS011;8809;51.892;8.384;2022-11-28T11:40:17;6.78;;;5.10;;
17382;SDS011;8809;51.892;8.384;2022-11-28T11:42:51;6.18;;;4.90;;
17382;SDS011;8809;51.892;8.384;2022-11-28T11:45:31;6.85;;;4.95;;
17382;SDS011;8809;51.892;8.384;2022-11-28T11:47:59;7.95;;;5.72;;
17382;SDS011;8809;51.892;8.384;2022-11-28T11:50:28;7.10;;;5.25;;
17382;SDS011;8809;51.892;8.384;2022-11-28T11:53:01;7.53;;;5.75;;
17382;SDS011;8809;51.892;8.384;2022-11-28T11:55:31;6.63;;;5.10;;
17382;SDS011;8809;51.892;8.384;2022-11-28T11:58:03;7.13;;;5.32;;
17382;SDS011;8809;51.892;8.384;2022-11-28T12:00:33;7.03;;;4.97;;
17382;SDS011;8809;51.892;8.384;2022-11-28T12:03:05;7.25;;;5.35;;
17382;SDS011;8809;51.892;8.384;2022-11-28T12:05:42;7.72;;;6.25;;
17382;SDS011;8809;51.892;8.384;2022-11-28T12:08:15;7.57;;;5.80;;
17382;SDS011;8809;51.892;8.384;2022-11-28T12:10:47;8.75;;;6.57;;
17382;SDS011;8809;51.892;8.384;2022-11-28T12:13:18;7.43;;;5.50;;
17382;SDS011;8809;51.892;8.384;2022-11-28T12:15:51;10.20;;;7.05;;
17382;SDS011;8809;51.892;8.384;2022-11-28T12:18:26;10.45;;;7.25;;
17382;SDS011;8809;51.892;8.384;2022-11-28T12:21:11;11.90;;;8.15;;
17382;SDS011;8809;51.892;8.384;2022-11-28T12:23:43;9.38;;;7.25;;
17382;SDS011;8809;51.892;8.384;2022-11-28T12:26:24;9.10;;;5.93;;
17382;SDS011;8809;51.892;8.384;2022-11-28T12:29:06;8.43;;;6.15;;
17382;SDS011;8809;51.892;8.384;2022-11-28T12:31:54;7.60;;;5.95;;
17382;SDS011;8809;51.892;8.384;2022-11-28T12:34:32;14.00;;;9.23;;
17382;SDS011;8809;51.892;8.384;2022-11-28T12:37:09;12.25;;;8.27;;
17382;SDS011;8809;51.892;8.384;2022-11-28T12:39:51;10.93;;;8.10;;
17382;SDS011;8809;51.892;8.384;2022-11-28T12:42:37;10.50;;;7.25;;
17382;SDS011;8809;51.892;8.384;2022-11-28T12:45:17;10.43;;;7.72;;
17382;SDS011;8809;51.892;8.384;2022-11-28T12:47:57;10.73;;;8.10;;
17382;SDS011;8809;51.892;8.384;2022-11-28T12:50:34;12.20;;;8.30;;
17382;SDS011;8809;51.892;8.384;2022-11-28T12:53:21;11.05;;;7.50;;
17382;SDS011;8809;51.892;8.384;2022-11-28T12:56:17;9.95;;;6.68;;
17382;SDS011;8809;51.892;8.384;2022-11-28T12:59:01;7.95;;;5.97;;
17382;SDS011;8809;51.892;8.384;2022-11-28T13:01:42;9.18;;;5.90;;
17382;SDS011;8809;51.892;8.384;2022-11-28T13:04:24;7.85;;;5.95;;
17382;SDS011;8809;51.892;8.384;2022-11-28T13:07:05;7.18;;;5.80;;
17382;SDS011;8809;51.892;8.384;2022-11-28T13:09:47;8.07;;;5.97;;
17382;SDS011;8809;51.892;8.384;2022-11-28T13:12:22;8.20;;;5.80;;
17382;SDS011;8809;51.892;8.384;2022-11-28T13:14:55;8.35;;;5.55;;
17382;SDS011;8809;51.892;8.384;2022-11-28T13:17:37;5.38;;;4.47;;
17382;SDS011;8809;51.892;8.384;2022-11-28T13:20:14;5.50;;;4.60;;
17382;SDS011;8809;51.892;8.384;2022-11-28T13:23:01;5.82;;;4.50;;
17382;SDS011;8809;51.892;8.384;2022-11-28T13:25:37;5.80;;;4.05;;
17382;SDS011;8809;51.892;8.384;2022-11-28T13:28:14;5.75;;;4.68;;
17382;SDS011;8809;51.892;8.384;2022-11-28T13:30:45;5.80;;;4.20;;
17382;SDS011;8809;51.892;8.384;2022-11-28T13:36:10;5.28;;;3.60;;
17382;SDS011;8809;51.892;8.384;2022-11-28T13:38:44;4.03;;;3.22;;
17382;SDS011;8809;51.892;8.384;2022-11-28T13:41:18;5.07;;;3.47;;
17382;SDS011;8809;51.892;8.384;2022-11-28T13:43:49;3.92;;;3.25;;
17382;SDS011;8809;51.892;8.384;2022-11-28T13:46:20;4.65;;;3.67;;
17382;SDS011;8809;51.892;8.384;2022-11-28T13:48:54;5.43;;;4.05;;
17382;SDS011;8809;51.892;8.384;2022-11-28T13:51:26;6.38;;;4.80;;
17382;SDS011;8809;51.892;8.384;2022-11-28T13:57:09;9.40;;;7.05;;
17382;SDS011;8809;51.892;8.384;2022-11-28T13:59:48;8.63;;;6.15;;
17382;SDS011;8809;51.892;8.384;2022-11-28T14:02:20;7.03;;;5.13;;
17382;SDS011;8809;51.892;8.384;2022-11-28T14:04:50;8.60;;;6.45;;
17382;SDS011;8809;51.892;8.384;2022-11-28T14:07:23;12.25;;;8.60;;
17382;SDS011;8809;51.892;8.384;2022-11-28T14:09:58;8.90;;;6.70;;
17382;SDS011;8809;51.892;8.384;2022-11-28T14:12:42;12.73;;;9.50;;
17382;SDS011;8809;51.892;8.384;2022-11-28T14:15:20;10.85;;;7.20;;
17382;SDS011;8809;51.892;8.384;2022-11-28T14:17:58;11.70;;;8.57;;
17382;SDS011;8809;51.892;8.384;2022-11-28T14:20:37;9.73;;;6.80;;
17382;SDS011;8809;51.892;8.384;2022-11-28T14:23:18;8.68;;;6.80;;
17382;SDS011;8809;51.892;8.384;2022-11-28T14:25:53;10.15;;;6.43;;
17382;SDS011;8809;51.892;8.384;2022-11-28T14:28:21;10.27;;;7.53;;
17382;SDS011;8809;51.892;8.384;2022-11-28T14:30:51;12.80;;;7.53;;
17382;SDS011;8809;51.892;8.384;2022-11-28T14:33:30;9.63;;;7.28;;
17382;SDS011;8809;51.892;8.384;2022-11-28T14:36:05;10.40;;;7.63;;
17382;SDS011;8809;51.892;8.384;2022-11-28T14:39:00;10.60;;;7.22;;
17382;SDS011;8809;51.892;8.384;2022-11-28T14:41:30;11.48;;;8.60;;
17382;SDS011;8809;51.892;8.384;2022-11-28T14:47:03;11.35;;;7.90;;
17382;SDS011;8809;51.892;8.384;2022-11-28T14:49:31;10.80;;;7.78;;
17382;SDS011;8809;51.892;8.384;2022-11-28T14:52:05;10.60;;;7.85;;
17382;SDS011;8809;51.892;8.384;2022-11-28T14:54:35;10.85;;;8.00;;
17382;SDS011;8809;51.892;8.384;2022-11-28T14:57:09;10.07;;;7.25;;
17382;SDS011;8809;51.892;8.384;2022-11-28T14:59:40;9.60;;;7.07;;
17382;SDS011;8809;51.892;8.384;2022-11-28T15:02:16;10.20;;;7.00;;
17382;SDS011;8809;51.892;8.384;2022-11-28T15:05:14;11.02;;;8.20;;
17382;SDS011;8809;51.892;8.384;2022-11-28T15:07:58;10.52;;;7.72;;
17382;SDS011;8809;51.892;8.384;2022-11-28T15:10:40;10.10;;;6.97;;
17382;SDS011;8809;51.892;8.384;2022-11-28T15:13:24;10.63;;;7.10;;
17382;SDS011;8809;51.892;8.384;2022-11-28T15:16:02;12.40;;;8.63;;
17382;SDS011;8809;51.892;8.384;2022-11-28T15:18:31;11.45;;;8.32;;
17382;SDS011;8809;51.892;8.384;2022-11-28T15:20:59;11.07;;;8.30;;
17382;SDS011;8809;51.892;8.384;2022-11-28T15:23:30;11.63;;;8.07;;
17382;SDS011;8809;51.892;8.384;2022-11-28T15:26:01;12.60;;;9.15;;
17382;SDS011;8809;51.892;8.384;2022-11-28T15:28:29;11.70;;;8.10;;
17382;SDS011;8809;51.892;8.384;2022-11-28T15:31:00;11.63;;;8.30;;
17382;SDS011;8809;51.892;8.384;2022-11-28T15:33:29;10.73;;;8.13;;
17382;SDS011;8809;51.892;8.384;2022-11-28T15:35:58;13.63;;;9.50;;
17382;SDS011;8809;51.892;8.384;2022-11-28T15:38:27;11.13;;;8.57;;
17382;SDS011;8809;51.892;8.384;2022-11-28T15:40:55;13.70;;;8.80;;
17382;SDS011;8809;51.892;8.384;2022-11-28T15:43:25;13.15;;;8.45;;